createdAt,value
2019-05-09T00:02:15.586Z,13.16
2019-05-09T00:04:45.536Z,13.21
2019-05-09T00:07:16.000Z,13.24
2019-05-09T00:09:46.157Z,13.21
2019-05-09T00:12:15.593Z,13.20
2019-05-09T00:14:45.355Z,13.19
2019-05-09T00:17:15.612Z,13.11
2019-05-09T00:19:45.616Z,13.10
2019-05-09T00:22:15.354Z,13.01
2019-05-09T00:24:46.084Z,12.87
2019-05-09T00:29:49.750Z,12.73
2019-05-09T00:32:26.604Z,12.75
2019-05-09T00:35:14.129Z,12.75
2019-05-09T00:38:00.474Z,12.79
2019-05-09T00:40:30.454Z,12.85
2019-05-09T00:43:00.470Z,12.88
2019-05-09T00:45:47.898Z,12.96
2019-05-09T00:48:19.547Z,13.11
2019-05-09T00:50:49.336Z,13.14
2019-05-09T00:53:19.181Z,13.14
2019-05-09T00:55:48.995Z,13.06
2019-05-09T00:58:18.503Z,12.92
2019-05-09T01:00:48.140Z,12.77
2019-05-09T01:03:17.580Z,12.61
2019-05-09T01:05:47.645Z,12.58
2019-05-09T01:08:17.335Z,12.54
2019-05-09T01:10:46.863Z,12.46
2019-05-09T01:13:16.305Z,12.44
2019-05-09T01:15:45.758Z,12.40
2019-05-09T01:18:15.203Z,12.48
2019-05-09T01:20:44.716Z,12.49
2019-05-09T01:23:14.432Z,12.41
2019-05-09T01:25:43.877Z,12.24
2019-05-09T01:28:14.004Z,12.07
2019-05-09T01:30:43.938Z,11.99
2019-05-09T01:33:15.504Z,11.92
2019-05-09T01:35:44.962Z,11.81
2019-05-09T01:38:14.463Z,11.70
2019-05-09T01:40:44.031Z,11.58
2019-05-09T01:43:13.973Z,11.54
2019-05-09T01:45:47.037Z,11.50
2019-05-09T01:48:14.950Z,11.49
2019-05-09T01:50:44.397Z,11.44
2019-05-09T01:53:15.485Z,11.42
2019-05-09T01:56:00.790Z,11.39
2019-05-09T01:58:34.184Z,11.36
2019-05-09T02:01:05.501Z,11.35
2019-05-09T02:03:35.892Z,11.32
2019-05-09T02:06:05.678Z,11.36
2019-05-09T02:08:35.119Z,11.40
2019-05-09T02:11:04.970Z,11.39
2019-05-09T02:13:34.780Z,11.40
2019-05-09T02:16:23.450Z,11.44
2019-05-09T02:18:55.005Z,11.43
2019-05-09T02:21:24.695Z,11.49
2019-05-09T02:23:55.091Z,11.57
2019-05-09T02:26:24.823Z,11.58
2019-05-09T02:28:54.270Z,11.57
2019-05-09T02:31:24.722Z,11.56
2019-05-09T02:33:54.787Z,11.58
2019-05-09T02:36:24.233Z,11.53
2019-05-09T02:38:53.673Z,11.49
2019-05-09T02:41:23.187Z,11.48
2019-05-09T02:43:52.639Z,11.52
2019-05-09T02:46:24.046Z,11.51
2019-05-09T02:48:53.479Z,11.50
2019-05-09T02:51:23.278Z,11.52
2019-05-09T02:53:52.712Z,11.52
2019-05-09T02:56:22.405Z,11.52
2019-05-09T02:59:11.787Z,11.51
2019-05-09T03:01:42.868Z,11.57
2019-05-09T03:04:12.543Z,11.55
2019-05-09T03:06:41.995Z,11.62
2019-05-09T03:09:11.427Z,11.67
2019-05-09T03:11:40.876Z,11.75
2019-05-09T03:14:11.196Z,11.73
2019-05-09T03:16:40.646Z,11.70
2019-05-09T03:19:10.089Z,11.64
2019-05-09T03:21:41.501Z,11.68
2019-05-09T03:24:10.926Z,11.65
2019-05-09T03:26:42.016Z,11.63
2019-05-09T03:29:13.093Z,11.65
2019-05-09T03:31:43.645Z,11.60
2019-05-09T03:34:13.093Z,11.64
2019-05-09T03:36:43.265Z,11.59
2019-05-09T03:39:12.697Z,11.60
2019-05-09T03:41:42.441Z,11.51
2019-05-09T03:44:11.879Z,11.48
2019-05-09T03:46:47.634Z,11.44
2019-05-09T03:49:18.778Z,11.44
2019-05-09T03:51:48.372Z,11.46
2019-05-09T03:54:18.384Z,11.55
2019-05-09T03:56:52.633Z,11.51
2019-05-09T03:59:22.852Z,11.49
2019-05-09T04:01:52.303Z,11.47
2019-05-09T04:04:21.738Z,11.47
2019-05-09T04:06:51.551Z,11.56
2019-05-09T04:09:21.252Z,11.58
2019-05-09T04:11:50.701Z,11.57
2019-05-09T04:14:21.793Z,11.59
2019-05-09T04:16:51.232Z,11.65
2019-05-09T04:19:20.664Z,11.69
2019-05-09T04:21:50.119Z,11.76
2019-05-09T04:24:19.560Z,11.77
2019-05-09T04:26:53.533Z,11.86
2019-05-09T04:29:22.965Z,11.88
2019-05-09T04:31:52.433Z,11.91
2019-05-09T04:34:21.874Z,11.91
2019-05-09T04:36:51.647Z,11.85
2019-05-09T04:39:23.662Z,11.86
2019-05-09T04:41:55.078Z,11.78
2019-05-09T04:44:25.272Z,11.75
2019-05-09T04:47:01.662Z,11.71
2019-05-09T04:49:29.656Z,11.67
2019-05-09T04:51:58.435Z,11.68
2019-05-09T04:54:28.135Z,11.68
2019-05-09T04:56:57.671Z,11.70
2019-05-09T04:59:28.379Z,11.76
2019-05-09T05:02:18.123Z,11.76
2019-05-09T05:04:47.943Z,11.77
2019-05-09T05:07:18.097Z,11.79
2019-05-09T05:09:48.394Z,11.84
2019-05-09T05:12:18.753Z,11.88
2019-05-09T05:14:48.228Z,11.94
2019-05-09T05:17:18.077Z,11.95
2019-05-09T05:19:48.443Z,11.92
2019-05-09T05:22:22.276Z,12.04
2019-05-09T05:24:55.840Z,12.18
2019-05-09T05:27:24.521Z,12.24
2019-05-09T05:29:53.955Z,12.28
2019-05-09T05:32:25.046Z,12.39
2019-05-09T05:34:58.710Z,12.74
2019-05-09T05:37:28.212Z,12.86
2019-05-09T05:39:58.319Z,12.86
2019-05-09T05:42:28.431Z,12.94
2019-05-09T05:44:58.409Z,13.02
2019-05-09T05:47:29.525Z,12.98
2019-05-09T05:49:58.983Z,13.03
2019-05-09T05:52:28.409Z,13.13
2019-05-09T05:54:58.260Z,13.14
2019-05-09T05:57:28.105Z,13.09
2019-05-09T05:59:58.493Z,13.09
2019-05-09T06:02:28.567Z,13.10
2019-05-09T06:04:58.084Z,13.03
2019-05-09T06:07:28.515Z,13.03
2019-05-09T06:09:58.051Z,13.09
2019-05-09T06:12:27.777Z,13.10
2019-05-09T06:14:58.168Z,13.10
2019-05-09T06:17:28.638Z,13.16
2019-05-09T06:19:59.077Z,13.20
2019-05-09T06:22:28.633Z,13.11
2019-05-09T06:24:58.366Z,13.26
2019-05-09T06:27:28.232Z,13.38
2019-05-09T06:29:58.285Z,13.50
2019-05-09T06:32:28.053Z,13.60
2019-05-09T06:34:57.969Z,13.60
2019-05-09T06:37:27.822Z,13.67
2019-05-09T06:39:58.284Z,13.73
2019-05-09T06:42:28.587Z,13.73
2019-05-09T06:45:07.739Z,13.70
2019-05-09T06:47:39.431Z,13.77
2019-05-09T06:50:10.521Z,13.81
2019-05-09T06:52:39.955Z,13.81
2019-05-09T06:55:09.485Z,13.89
2019-05-09T06:57:42.829Z,14.22
2019-05-09T07:00:12.717Z,14.55
2019-05-09T07:02:47.857Z,15.05
2019-05-09T07:05:25.056Z,15.30
2019-05-09T07:08:05.127Z,15.32
2019-05-09T07:10:34.874Z,15.20
2019-05-09T07:13:04.387Z,15.02
2019-05-09T07:15:33.839Z,14.77
2019-05-09T07:18:03.287Z,14.77
2019-05-09T07:20:33.209Z,14.77
2019-05-09T07:23:02.642Z,15.02
2019-05-09T07:25:37.773Z,14.88
2019-05-09T07:28:07.745Z,14.91
2019-05-09T07:30:41.530Z,14.94
2019-05-09T07:33:30.642Z,14.94
2019-05-09T07:36:01.853Z,15.00
2019-05-09T07:38:32.315Z,15.21
2019-05-09T07:41:02.113Z,15.35
2019-05-09T07:43:31.831Z,15.20
2019-05-09T07:46:04.649Z,15.20
2019-05-09T07:48:35.135Z,15.12
2019-05-09T07:51:04.647Z,14.93
2019-05-09T07:53:34.253Z,14.91
2019-05-09T07:56:03.702Z,15.39
2019-05-09T07:58:33.137Z,15.39
2019-05-09T08:01:02.596Z,15.58
2019-05-09T08:03:32.303Z,15.53
2019-05-09T08:06:01.757Z,15.43
2019-05-09T08:08:31.191Z,15.28
2019-05-09T08:11:01.002Z,15.21
2019-05-09T08:13:30.452Z,15.38
2019-05-09T08:15:59.909Z,15.61
2019-05-09T08:18:29.344Z,15.87
2019-05-09T08:20:58.792Z,15.85
2019-05-09T08:23:28.221Z,15.80
2019-05-09T08:25:58.088Z,15.63
2019-05-09T08:28:28.135Z,15.60
2019-05-09T08:30:58.570Z,15.67
2019-05-09T08:33:28.848Z,15.83
2019-05-09T08:35:58.674Z,16.03
2019-05-09T08:38:28.551Z,16.06
2019-05-09T08:41:09.098Z,16.15
2019-05-09T08:43:39.437Z,16.18
2019-05-09T08:46:09.139Z,16.26
2019-05-09T08:48:38.591Z,16.27
2019-05-09T08:51:09.730Z,16.29
2019-05-09T08:53:39.167Z,16.47
2019-05-09T08:56:12.491Z,16.61
2019-05-09T08:58:39.749Z,16.98
2019-05-09T09:01:11.053Z,17.19
2019-05-09T09:03:40.380Z,17.29
2019-05-09T09:06:09.814Z,17.01
2019-05-09T09:08:39.297Z,16.60
2019-05-09T09:11:09.022Z,16.70
2019-05-09T09:13:38.799Z,16.64
2019-05-09T09:16:18.458Z,16.97
2019-05-09T09:18:39.417Z,16.76
2019-05-09T09:21:08.849Z,16.86
2019-05-09T09:23:44.231Z,16.90
2019-05-09T09:26:09.421Z,17.50
2019-05-09T09:28:38.879Z,17.77
2019-05-09T09:31:08.402Z,18.07
2019-05-09T09:33:37.891Z,18.22
2019-05-09T09:36:08.737Z,18.24
2019-05-09T09:38:38.756Z,18.62
2019-05-09T09:41:08.194Z,18.90
2019-05-09T09:43:38.386Z,18.70
2019-05-09T09:46:14.339Z,19.05
2019-05-09T09:48:39.855Z,19.97
2019-05-09T09:51:09.571Z,20.28
2019-05-09T09:53:39.372Z,20.38
2019-05-09T09:56:08.937Z,20.53
2019-05-09T09:58:38.331Z,20.60
2019-05-09T10:01:21.827Z,20.70
2019-05-09T10:03:52.915Z,21.00
2019-05-09T10:06:22.347Z,20.99
2019-05-09T10:08:51.789Z,20.81
2019-05-09T10:11:21.224Z,20.74
2019-05-09T10:13:52.051Z,20.99
2019-05-09T10:16:29.154Z,20.95
2019-05-09T10:19:10.846Z,20.71
2019-05-09T10:21:45.299Z,20.93
2019-05-09T10:24:17.360Z,20.34
2019-05-09T10:27:04.255Z,20.34
2019-05-09T10:29:34.244Z,21.23
2019-05-09T10:32:08.797Z,21.88
2019-05-09T10:34:37.881Z,21.01
2019-05-09T10:37:07.841Z,20.55
2019-05-09T10:39:38.146Z,20.02
2019-05-09T10:42:25.548Z,19.61
2019-05-09T10:44:59.390Z,19.77
2019-05-09T10:47:34.058Z,19.84
2019-05-09T10:50:05.057Z,19.39
2019-05-09T10:52:34.557Z,18.98
2019-05-09T10:55:04.966Z,19.64
2019-05-09T10:57:34.390Z,20.78
2019-05-09T11:00:08.695Z,20.54
2019-05-09T11:02:37.520Z,21.26
2019-05-09T11:05:08.372Z,21.62
2019-05-09T11:07:38.181Z,20.88
2019-05-09T11:10:24.129Z,21.81
2019-05-09T11:12:38.876Z,22.81
2019-05-09T11:15:09.215Z,23.77
2019-05-09T11:17:39.043Z,23.01
2019-05-09T11:20:09.054Z,21.03
2019-05-09T11:22:38.765Z,22.46
2019-05-09T11:25:08.832Z,24.83
2019-05-09T11:27:38.896Z,24.22
2019-05-09T11:30:08.602Z,22.01
2019-05-09T11:32:38.708Z,21.18
2019-05-09T11:37:39.348Z,20.24
2019-05-09T11:40:08.796Z,19.24
2019-05-09T11:41:02.070Z,20.95
2019-05-09T11:42:38.671Z,20.65
2019-05-09T11:45:08.131Z,22.10
2019-05-09T11:47:45.449Z,22.42
2019-05-09T11:50:09.082Z,22.01
2019-05-09T11:52:38.524Z,21.44
2019-05-09T11:55:27.459Z,20.57
2019-05-09T11:57:39.718Z,20.84
2019-05-09T12:00:10.407Z,19.88
2019-05-09T12:02:39.843Z,19.80
2019-05-09T12:05:09.361Z,20.20
2019-05-09T12:07:38.794Z,20.51
2019-05-09T12:10:08.631Z,20.55
2019-05-09T12:12:39.033Z,21.04
2019-05-09T12:15:09.211Z,21.24
2019-05-09T12:17:50.918Z,21.20
2019-05-09T12:20:13.471Z,20.90
2019-05-09T12:22:41.777Z,21.17
2019-05-09T12:25:11.508Z,21.27
2019-05-09T12:27:40.950Z,21.32
2019-05-09T12:30:11.066Z,21.20
2019-05-09T12:32:40.510Z,21.02
2019-05-09T12:35:10.030Z,20.84
2019-05-09T12:37:39.587Z,20.26
2019-05-09T12:40:09.500Z,20.32
2019-05-09T12:42:39.541Z,19.91
2019-05-09T12:45:09.473Z,20.33
2019-05-09T12:47:39.844Z,20.89
2019-05-09T12:50:10.178Z,21.05
2019-05-09T12:52:39.684Z,21.31
2019-05-09T12:55:12.680Z,22.22
2019-05-09T12:57:40.437Z,22.39
2019-05-09T13:00:10.427Z,23.48
2019-05-09T13:02:40.036Z,24.42
2019-05-09T13:05:09.805Z,25.13
2019-05-09T13:07:42.390Z,24.85
2019-05-09T13:12:39.122Z,23.28
2019-05-09T13:15:09.060Z,22.54
2019-05-09T13:17:40.283Z,23.63
2019-05-09T13:20:10.734Z,24.01
2019-05-09T13:22:40.171Z,25.39
2019-05-09T13:25:09.830Z,25.43
2019-05-09T13:27:39.327Z,25.56
2019-05-09T13:30:09.491Z,22.90
2019-05-09T13:32:38.931Z,21.67
2019-05-09T13:35:08.614Z,20.46
2019-05-09T13:37:38.439Z,20.59
2019-05-09T13:40:08.563Z,22.52
2019-05-09T13:42:39.633Z,21.84
2019-05-09T13:45:09.417Z,22.69
2019-05-09T13:47:38.854Z,22.58
2019-05-09T13:50:09.105Z,21.96
2019-05-09T13:52:38.581Z,21.17
2019-05-09T13:55:08.826Z,20.69
2019-05-09T13:57:39.011Z,20.64
2019-05-09T14:00:09.255Z,20.69
2019-05-09T14:02:38.757Z,20.52
2019-05-09T14:05:09.325Z,21.27
2019-05-09T14:07:39.003Z,21.43
2019-05-09T14:10:10.412Z,21.57
2019-05-09T14:12:40.011Z,21.97
2019-05-09T14:15:09.858Z,21.81
2019-05-09T14:17:49.267Z,23.98
2019-05-09T14:20:10.912Z,24.78
2019-05-09T14:22:40.324Z,24.42
2019-05-09T14:25:11.570Z,23.31
2019-05-09T14:27:40.954Z,21.31
2019-05-09T14:30:10.577Z,20.97
2019-05-09T14:32:40.468Z,20.56
2019-05-09T14:35:10.598Z,19.98
2019-05-09T14:37:40.109Z,19.89
2019-05-09T14:40:10.476Z,19.85
2019-05-09T14:42:40.699Z,19.87
2019-05-09T14:45:10.884Z,19.73
2019-05-09T14:47:42.467Z,20.16
2019-05-09T14:50:11.666Z,20.79
2019-05-09T14:52:41.100Z,21.35
2019-05-09T14:55:10.605Z,21.39
2019-05-09T14:57:40.056Z,21.81
2019-05-09T15:00:10.239Z,22.19
2019-05-09T15:02:39.691Z,22.29
2019-05-09T15:05:09.750Z,21.77
2019-05-09T15:07:39.508Z,20.76
2019-05-09T15:10:09.182Z,20.76
2019-05-09T15:12:39.243Z,21.22
2019-05-09T15:15:09.414Z,21.19
2019-05-09T15:17:38.864Z,21.87
2019-05-09T15:20:08.942Z,22.86
2019-05-09T15:22:38.937Z,23.53
2019-05-09T15:25:10.418Z,24.40
2019-05-09T15:27:39.866Z,24.92
2019-05-09T15:30:11.229Z,24.52
2019-05-09T15:32:40.703Z,24.50
2019-05-09T15:35:10.312Z,24.51
2019-05-09T15:37:41.388Z,24.46
2019-05-09T15:40:11.903Z,24.79
2019-05-09T15:42:41.482Z,24.79
2019-05-09T15:45:10.999Z,24.89
2019-05-09T15:47:41.372Z,24.34
2019-05-09T15:50:19.314Z,24.14
2019-05-09T15:52:43.107Z,24.33
2019-05-09T15:55:12.618Z,24.63
2019-05-09T15:57:42.114Z,24.81
2019-05-09T16:00:14.508Z,24.44
2019-05-09T16:02:43.968Z,23.49
2019-05-09T16:05:13.402Z,22.88
2019-05-09T16:07:43.175Z,22.80
2019-05-09T16:10:13.289Z,22.48
2019-05-09T16:12:43.014Z,22.77
2019-05-09T16:15:12.730Z,23.31
2019-05-09T16:17:42.180Z,23.61
2019-05-09T16:20:11.765Z,23.77
2019-05-09T16:22:41.232Z,23.64
2019-05-09T16:25:10.750Z,23.72
2019-05-09T16:27:40.659Z,23.54
2019-05-09T16:30:10.262Z,23.34
2019-05-09T16:32:39.717Z,23.46
2019-05-09T16:35:09.335Z,23.38
2019-05-09T16:37:57.394Z,22.99
2019-05-09T16:40:09.935Z,22.94
2019-05-09T16:42:39.397Z,22.52
2019-05-09T16:45:09.755Z,22.69
2019-05-09T16:47:39.206Z,22.56
2019-05-09T16:50:12.118Z,22.18
2019-05-09T16:52:43.583Z,21.96
2019-05-09T16:55:13.307Z,21.61
2019-05-09T16:57:43.644Z,21.58
2019-05-09T17:00:18.395Z,21.31
2019-05-09T17:02:48.275Z,21.10
2019-05-09T17:05:18.067Z,21.02
2019-05-09T17:07:47.704Z,20.57
2019-05-09T17:10:17.834Z,20.37
2019-05-09T17:12:47.924Z,20.18
2019-05-09T17:15:19.070Z,19.95
2019-05-09T17:17:48.518Z,19.87
2019-05-09T17:20:19.609Z,19.96
2019-05-09T17:23:11.707Z,19.98
2019-05-09T17:25:38.478Z,19.88
2019-05-09T17:28:08.283Z,19.61
2019-05-09T17:30:38.523Z,19.36
2019-05-09T17:33:08.111Z,19.10
2019-05-09T17:35:38.625Z,18.86
2019-05-09T17:38:08.781Z,18.65
2019-05-09T17:40:39.325Z,18.51
2019-05-09T17:43:09.311Z,18.46
2019-05-09T17:45:41.916Z,18.48
2019-05-09T17:48:10.290Z,18.46
2019-05-09T17:50:40.101Z,18.46
2019-05-09T17:53:09.538Z,18.37
2019-05-09T17:55:38.983Z,18.25
2019-05-09T17:58:09.072Z,18.11
2019-05-09T18:00:38.550Z,18.02
2019-05-09T18:03:07.991Z,17.92
2019-05-09T18:05:38.951Z,17.82
2019-05-09T18:08:08.889Z,17.75
2019-05-09T18:10:38.360Z,17.70
2019-05-09T18:13:08.174Z,17.63
2019-05-09T18:15:38.113Z,17.60
2019-05-09T18:18:07.509Z,17.52
2019-05-09T18:20:37.946Z,17.43
2019-05-09T18:23:08.345Z,17.34
2019-05-09T18:25:38.035Z,17.26
2019-05-09T18:28:07.504Z,17.20
2019-05-09T18:30:38.841Z,17.11
2019-05-09T18:33:09.732Z,16.93
2019-05-09T18:35:39.263Z,16.82
2019-05-09T18:38:10.148Z,16.73
2019-05-09T18:40:39.603Z,16.72
2019-05-09T18:43:09.033Z,16.61
2019-05-09T18:45:38.479Z,16.55
2019-05-09T18:48:08.511Z,16.43
2019-05-09T18:50:38.057Z,16.35
2019-05-09T18:53:07.501Z,16.39
2019-05-09T18:55:36.972Z,16.35
2019-05-09T18:58:06.455Z,16.29
2019-05-09T19:00:35.916Z,16.29
2019-05-09T19:03:05.369Z,16.23
2019-05-09T19:05:34.834Z,16.19
2019-05-09T19:08:06.442Z,16.18
2019-05-09T19:10:35.919Z,16.18
2019-05-09T19:13:05.667Z,16.13
2019-05-09T19:15:42.495Z,16.08
2019-05-09T19:18:16.571Z,16.08
2019-05-09T19:20:50.922Z,16.04
2019-05-09T19:23:20.360Z,16.00
2019-05-09T19:25:49.810Z,15.97
2019-05-09T19:28:19.244Z,16.08
2019-05-09T19:30:48.732Z,15.89
2019-05-09T19:33:18.171Z,15.35
2019-05-09T19:35:47.661Z,14.86
2019-05-09T19:38:17.102Z,14.59
2019-05-09T19:40:46.542Z,14.37
2019-05-09T19:43:15.979Z,14.17
2019-05-09T19:45:45.447Z,14.09
2019-05-09T19:48:14.879Z,14.04
2019-05-09T19:50:44.324Z,13.98
2019-05-09T19:53:14.118Z,13.87
2019-05-09T19:55:43.621Z,13.87
2019-05-09T19:58:13.169Z,13.88
2019-05-09T20:00:42.667Z,13.87
2019-05-09T20:03:12.202Z,13.89
2019-05-09T20:05:41.649Z,13.90
2019-05-09T20:08:11.084Z,13.81
2019-05-09T20:10:48.036Z,13.60
2019-05-09T20:13:21.836Z,13.60
2019-05-09T20:15:51.277Z,13.60
2019-05-09T20:18:20.701Z,13.55
2019-05-09T20:20:50.184Z,13.53
2019-05-09T20:23:19.615Z,13.51
2019-05-09T20:25:49.182Z,13.48
2019-05-09T20:28:18.624Z,13.43
2019-05-09T20:30:48.430Z,13.33
2019-05-09T20:33:17.847Z,13.34
2019-05-09T20:35:47.286Z,13.31
2019-05-09T20:38:17.218Z,13.31
2019-05-09T20:40:46.848Z,13.34
2019-05-09T20:43:16.459Z,13.32
2019-05-09T20:45:46.109Z,13.26
2019-05-09T20:48:15.740Z,13.26
2019-05-09T20:50:45.420Z,13.25
2019-05-09T20:53:15.359Z,13.25
2019-05-09T20:55:45.881Z,13.23
2019-05-09T20:58:15.569Z,13.27
2019-05-09T21:00:45.200Z,13.27
2019-05-09T21:03:15.081Z,13.25
2019-05-09T21:05:44.710Z,13.22
2019-05-09T21:08:14.335Z,13.16
2019-05-09T21:10:43.974Z,13.16
2019-05-09T21:13:13.609Z,13.13
2019-05-09T21:15:43.236Z,13.11
2019-05-09T21:18:12.914Z,13.10
2019-05-09T21:20:42.578Z,13.08
2019-05-09T21:23:23.920Z,13.03
2019-05-09T21:25:43.638Z,13.02
2019-05-09T21:28:13.267Z,12.98
2019-05-09T21:30:43.532Z,12.93
2019-05-09T21:33:13.481Z,12.83
2019-05-09T21:35:42.924Z,12.83
2019-05-09T21:38:12.362Z,12.77
2019-05-09T21:40:42.125Z,12.72
2019-05-09T21:43:11.564Z,12.66
2019-05-09T21:45:40.992Z,12.65
2019-05-09T21:48:10.439Z,12.47
2019-05-09T21:50:39.867Z,12.47
2019-05-09T21:53:09.338Z,12.49
2019-05-09T21:55:38.777Z,12.42
2019-05-09T21:58:08.287Z,12.37
2019-05-09T22:00:38.961Z,12.33
2019-05-09T22:03:08.601Z,12.28
2019-05-09T22:05:38.129Z,12.21
2019-05-09T22:08:07.582Z,12.22
2019-05-09T22:10:37.029Z,12.16
2019-05-09T22:13:06.479Z,12.12
2019-05-09T22:15:36.025Z,12.07
2019-05-09T22:18:05.477Z,12.01
2019-05-09T22:20:34.922Z,11.93
2019-05-09T22:23:06.446Z,11.90
2019-05-09T22:25:35.811Z,11.89
2019-05-09T22:28:05.257Z,11.87
2019-05-09T22:30:34.706Z,11.86
2019-05-09T22:33:04.146Z,11.82
2019-05-09T22:35:33.855Z,11.78
2019-05-09T22:38:03.300Z,11.73
2019-05-09T22:40:33.096Z,11.69
2019-05-09T22:43:02.538Z,11.66
2019-05-09T22:45:31.986Z,11.67
2019-05-09T22:48:01.425Z,11.67
2019-05-09T22:50:30.918Z,11.68
2019-05-09T22:53:00.392Z,11.65
2019-05-09T22:55:30.073Z,11.63
2019-05-09T22:57:59.522Z,11.64
2019-05-09T23:00:28.961Z,11.61
2019-05-09T23:02:58.418Z,11.64
2019-05-09T23:05:27.851Z,11.61
2019-05-09T23:07:57.647Z,11.59
2019-05-09T23:10:27.082Z,11.59
2019-05-09T23:12:56.540Z,11.60
2019-05-09T23:15:26.213Z,11.59
2019-05-09T23:17:55.667Z,11.59
2019-05-09T23:20:43.224Z,11.55
2019-05-09T23:23:23.107Z,11.53
2019-05-09T23:25:52.533Z,11.44
2019-05-09T23:28:21.987Z,11.36
2019-05-09T23:30:53.075Z,11.26
2019-05-09T23:33:23.790Z,11.22
2019-05-09T23:35:53.481Z,11.19
2019-05-09T23:38:22.934Z,11.20
2019-05-09T23:40:52.375Z,11.18
2019-05-09T23:43:21.824Z,11.18
2019-05-09T23:45:51.285Z,11.20
2019-05-09T23:48:20.759Z,11.25
2019-05-09T23:50:50.192Z,11.37
2019-05-09T23:53:24.484Z,11.46
2019-05-09T23:56:11.913Z,11.52
2019-05-09T23:58:59.500Z,11.56
